METAR Data
IDs: Format: Raw Decoded Include TAF

Data at: 0746 UTC 25 Apr 2019

EDDF 250720Z 07003KT 020V120 CAVOK 13/06 Q1010 NOSIG